Terminal Aerodrome Forecast
Issued by NWS

Home | Current Version | Previous Version | Graphics & Text | Print | Product List | Glossary On
Versions: 1 2 3 4 5 6 7 8 9 10 11 12 13 14 15 16 17
000
FTUS43 KBIS 221726
TAFDIK
TAF
KDIK 221726Z 2218/2318 11005KT P6SM FEW250
     FM222200 05006KT P6SM SCT250
     FM230200 36004KT P6SM BKN090
     FM231100 29008KT P6SM SCT200=

USA.gov is the U.S. government's official web portal to all federal, state and local government web resources and services.